createdAt,value
2019-04-01T00:01:12.422Z,7.83
2019-04-01T00:03:43.655Z,7.82
2019-04-01T00:06:14.812Z,7.79
2019-04-01T00:08:47.096Z,7.77
2019-04-01T00:11:18.324Z,7.73
2019-04-01T00:13:49.537Z,7.70
2019-04-01T00:16:20.802Z,7.67
2019-04-01T00:19:02.900Z,7.64
2019-04-01T00:21:25.974Z,7.61
2019-04-01T00:23:57.219Z,7.57
2019-04-01T00:26:28.506Z,7.54
2019-04-01T00:28:59.699Z,7.51
2019-04-01T00:31:30.936Z,7.47
2019-04-01T00:34:02.150Z,7.45
2019-04-01T00:36:33.259Z,7.43
2019-04-01T00:39:06.462Z,7.41
2019-04-01T00:41:47.084Z,7.39
2019-04-01T00:44:18.253Z,7.37
2019-04-01T00:46:49.498Z,7.33
2019-04-01T00:49:20.698Z,7.29
2019-04-01T00:51:51.908Z,7.27
2019-04-01T00:54:23.099Z,7.25
2019-04-01T00:56:54.265Z,7.25
2019-04-01T00:59:25.675Z,7.22
2019-04-01T01:01:56.865Z,7.22
2019-04-01T01:04:28.062Z,7.19
2019-04-01T01:06:59.347Z,7.17
2019-04-01T01:09:30.474Z,7.16
2019-04-01T01:12:01.633Z,7.12
2019-04-01T01:14:32.924Z,7.09
2019-04-01T01:17:04.136Z,7.08
2019-04-01T01:19:35.319Z,7.06
2019-04-01T01:22:06.441Z,7.06
2019-04-01T01:24:37.641Z,7.05
2019-04-01T01:27:08.797Z,7.03
2019-04-01T01:29:40.022Z,7.02
2019-04-01T01:32:11.232Z,7.00
2019-04-01T01:34:42.446Z,6.98
2019-04-01T01:37:13.609Z,6.95
2019-04-01T01:39:44.792Z,6.92
2019-04-01T01:42:16.017Z,6.90
2019-04-01T01:44:47.179Z,6.88
2019-04-01T01:47:18.390Z,6.86
2019-04-01T01:49:49.535Z,6.86
2019-04-01T01:52:20.684Z,6.83
2019-04-01T01:54:53.011Z,6.79
2019-04-01T01:57:24.169Z,6.76
2019-04-01T01:59:55.874Z,6.72
2019-04-01T02:02:27.052Z,6.71
2019-04-01T02:04:58.257Z,6.71
2019-04-01T02:07:29.477Z,6.71
2019-04-01T02:10:00.708Z,6.69
2019-04-01T02:12:31.935Z,6.67
2019-04-01T02:15:03.103Z,6.65
2019-04-01T02:17:34.329Z,6.62
2019-04-01T02:20:06.206Z,6.61
2019-04-01T02:22:37.332Z,6.58
2019-04-01T02:25:08.545Z,6.57
2019-04-01T02:27:39.735Z,6.55
2019-04-01T02:30:11.046Z,6.51
2019-04-01T02:32:42.202Z,6.49
2019-04-01T02:35:13.394Z,6.47
2019-04-01T02:37:44.638Z,6.43
2019-04-01T02:40:15.978Z,6.39
2019-04-01T02:42:47.049Z,6.37
2019-04-01T02:45:18.312Z,6.34
2019-04-01T02:47:49.503Z,6.31
2019-04-01T02:50:20.818Z,6.27
2019-04-01T02:52:51.994Z,6.22
2019-04-01T02:55:23.229Z,6.19
2019-04-01T02:57:54.465Z,6.17
2019-04-01T03:00:25.825Z,6.12
2019-04-01T03:02:57.026Z,6.09
2019-04-01T03:05:28.335Z,6.07
2019-04-01T03:07:59.504Z,6.06
2019-04-01T03:10:30.674Z,6.05
2019-04-01T03:13:01.843Z,6.00
2019-04-01T03:15:33.273Z,5.97
2019-04-01T03:18:04.425Z,5.95
2019-04-01T03:20:35.684Z,5.91
2019-04-01T03:23:06.898Z,5.91
2019-04-01T03:25:38.078Z,5.89
2019-04-01T03:28:09.206Z,5.88
2019-04-01T03:30:40.365Z,5.86
2019-04-01T03:33:11.651Z,5.84
2019-04-01T03:35:42.838Z,5.83
2019-04-01T03:38:14.013Z,5.80
2019-04-01T03:40:45.148Z,5.79
2019-04-01T03:43:16.525Z,5.77
2019-04-01T03:45:47.654Z,5.73
2019-04-01T03:48:18.835Z,5.66
2019-04-01T03:50:51.823Z,5.61
2019-04-01T03:53:22.976Z,5.57
2019-04-01T03:55:54.261Z,5.55
2019-04-01T03:58:25.444Z,5.53
2019-04-01T04:00:56.613Z,5.50
2019-04-01T04:03:27.899Z,5.50
2019-04-01T04:05:59.068Z,5.48
2019-04-01T04:08:30.209Z,5.48
2019-04-01T04:11:01.462Z,5.47
2019-04-01T04:13:32.605Z,5.43
2019-04-01T04:16:03.776Z,5.42
2019-04-01T04:18:34.926Z,5.42
2019-04-01T04:21:06.113Z,5.40
2019-04-01T04:23:37.211Z,5.39
2019-04-01T04:26:08.390Z,5.37
2019-04-01T04:28:39.591Z,5.33
2019-04-01T04:31:10.794Z,5.31
2019-04-01T04:33:41.969Z,5.28
2019-04-01T04:36:13.180Z,5.26
2019-04-01T04:38:44.374Z,5.23
2019-04-01T04:41:15.518Z,5.21
2019-04-01T04:43:46.813Z,5.20
2019-04-01T04:46:21.007Z,5.16
2019-04-01T04:48:50.840Z,5.16
2019-04-01T04:51:22.049Z,5.13
2019-04-01T04:53:53.159Z,5.12
2019-04-01T04:56:25.405Z,5.10
2019-04-01T04:58:56.582Z,5.10
2019-04-01T05:01:27.711Z,5.11
2019-04-01T05:03:58.855Z,5.09
2019-04-01T05:06:30.123Z,5.09
2019-04-01T05:09:01.284Z,5.08
2019-04-01T05:11:33.810Z,5.08
2019-04-01T05:14:05.037Z,5.09
2019-04-01T05:16:36.184Z,5.08
2019-04-01T05:19:07.404Z,5.08
2019-04-01T05:21:40.613Z,5.08
2019-04-01T05:24:11.888Z,5.09
2019-04-01T05:26:45.135Z,5.08
2019-04-01T05:29:16.450Z,5.09
2019-04-01T05:31:47.849Z,5.06
2019-04-01T05:34:20.607Z,5.05
2019-04-01T05:36:51.731Z,5.04
2019-04-01T05:39:22.894Z,5.07
2019-04-01T05:41:54.024Z,5.09
2019-04-01T05:44:25.128Z,5.12
2019-04-01T05:46:56.389Z,5.18
2019-04-01T05:49:27.758Z,5.19
2019-04-01T05:51:58.958Z,5.23
2019-04-01T05:54:30.080Z,5.26
2019-04-01T05:57:01.253Z,5.29
2019-04-01T05:59:32.452Z,5.34
2019-04-01T06:02:05.131Z,5.37
2019-04-01T06:04:36.339Z,5.41
2019-04-01T06:07:07.500Z,5.43
2019-04-01T06:09:38.832Z,5.47
2019-04-01T06:12:10.078Z,5.52
2019-04-01T06:14:41.182Z,5.56
2019-04-01T06:17:13.326Z,5.61
2019-04-01T06:19:44.414Z,5.67
2019-04-01T06:22:16.259Z,5.73
2019-04-01T06:24:47.352Z,5.79
2019-04-01T06:27:18.705Z,5.86
2019-04-01T06:29:49.907Z,5.92
2019-04-01T06:32:21.069Z,5.97
2019-04-01T06:34:53.213Z,6.04
2019-04-01T06:37:24.544Z,6.12
2019-04-01T06:39:55.787Z,6.18
2019-04-01T06:42:27.045Z,6.24
2019-04-01T06:44:58.260Z,6.31
2019-04-01T06:47:29.685Z,6.39
2019-04-01T06:50:01.158Z,6.43
2019-04-01T06:52:32.488Z,6.50
2019-04-01T06:55:03.753Z,6.58
2019-04-01T06:57:35.231Z,6.66
2019-04-01T07:00:06.761Z,6.73
2019-04-01T07:02:38.238Z,6.81
2019-04-01T07:05:12.359Z,6.89
2019-04-01T07:07:43.899Z,6.95
2019-04-01T07:10:15.527Z,7.02
2019-04-01T07:12:47.064Z,7.09
2019-04-01T07:15:18.698Z,7.18
2019-04-01T07:17:49.964Z,7.26
2019-04-01T07:20:21.258Z,7.32
2019-04-01T07:22:52.550Z,7.38
2019-04-01T07:25:23.805Z,7.45
2019-04-01T07:27:55.094Z,7.52
2019-04-01T07:30:26.299Z,7.59
2019-04-01T07:32:57.580Z,7.64
2019-04-01T07:35:28.882Z,7.72
2019-04-01T07:38:00.248Z,7.79
2019-04-01T07:40:31.535Z,7.84
2019-04-01T07:43:02.788Z,7.92
2019-04-01T07:45:35.209Z,8.01
2019-04-01T07:48:06.453Z,8.11
2019-04-01T07:50:37.736Z,8.19
2019-04-01T07:53:08.967Z,8.27
2019-04-01T07:55:40.205Z,8.34
2019-04-01T07:58:11.718Z,8.40
2019-04-01T08:00:42.975Z,8.42
2019-04-01T08:03:14.230Z,8.44
2019-04-01T08:05:45.590Z,8.48
2019-04-01T08:08:18.433Z,8.50
2019-04-01T08:10:49.941Z,8.54
2019-04-01T08:13:21.246Z,8.57
2019-04-01T08:15:52.524Z,8.60
2019-04-01T08:18:23.916Z,8.64
2019-04-01T08:20:55.214Z,8.67
2019-04-01T08:23:26.470Z,8.71
2019-04-01T08:25:57.675Z,8.77
2019-04-01T08:28:29.165Z,8.84
2019-04-01T08:31:00.558Z,8.91
2019-04-01T08:33:32.323Z,8.97
2019-04-01T08:36:03.640Z,9.02
2019-04-01T08:38:34.959Z,9.07
2019-04-01T08:41:06.313Z,9.13
2019-04-01T08:43:37.496Z,9.17
2019-04-01T08:46:08.810Z,9.20
2019-04-01T08:48:41.342Z,9.25
2019-04-01T08:51:14.430Z,9.32
2019-04-01T08:53:45.916Z,9.38
2019-04-01T08:56:17.126Z,9.46
2019-04-01T08:58:48.358Z,9.54
2019-04-01T09:01:34.215Z,9.61
2019-04-01T09:03:52.733Z,9.67
2019-04-01T09:06:23.981Z,9.70
2019-04-01T09:08:55.191Z,9.73
2019-04-01T09:11:26.464Z,9.77
2019-04-01T09:13:57.879Z,9.80
2019-04-01T09:16:29.130Z,9.87
2019-04-01T09:19:01.375Z,9.93
2019-04-01T09:21:32.752Z,10.01
2019-04-01T09:24:05.062Z,10.06
2019-04-01T09:26:36.380Z,10.10
2019-04-01T09:29:07.799Z,10.16
2019-04-01T09:31:39.052Z,10.25
2019-04-01T09:34:10.325Z,10.31
2019-04-01T09:36:41.581Z,10.36
2019-04-01T09:39:12.829Z,10.42
2019-04-01T09:41:44.134Z,10.47
2019-04-01T09:44:15.404Z,10.51
2019-04-01T09:46:48.939Z,10.56
2019-04-01T09:49:20.669Z,10.59
2019-04-01T09:51:51.874Z,10.61
2019-04-01T09:54:24.912Z,10.65
2019-04-01T09:56:56.155Z,10.72
2019-04-01T09:59:27.523Z,10.76
2019-04-01T10:01:58.750Z,10.79
2019-04-01T10:04:30.084Z,10.84
2019-04-01T10:07:01.395Z,10.88
2019-04-01T10:09:33.883Z,10.92
2019-04-01T10:12:05.202Z,10.93
2019-04-01T10:14:37.709Z,10.97
2019-04-01T10:17:08.927Z,11.02
2019-04-01T10:19:40.236Z,11.07
2019-04-01T10:22:11.468Z,11.15
2019-04-01T10:24:42.725Z,11.20
2019-04-01T10:27:14.935Z,11.27
2019-04-01T10:29:46.208Z,11.33
2019-04-01T10:32:17.531Z,11.35
2019-04-01T10:34:48.815Z,11.38
2019-04-01T10:37:20.136Z,11.42
2019-04-01T10:39:51.381Z,11.44
2019-04-01T10:42:22.894Z,11.48
2019-04-01T10:44:54.158Z,11.51
2019-04-01T10:47:25.586Z,11.55
2019-04-01T10:49:56.959Z,11.59
2019-04-01T10:52:28.261Z,11.65
2019-04-01T10:54:59.693Z,11.68
2019-04-01T10:57:31.005Z,11.72
2019-04-01T11:00:02.308Z,11.78
2019-04-01T11:02:33.649Z,11.81
2019-04-01T11:05:05.559Z,11.84
2019-04-01T11:07:36.912Z,11.89
2019-04-01T11:10:11.424Z,11.93
2019-04-01T11:12:41.591Z,11.96
2019-04-01T11:15:15.809Z,12.02
2019-04-01T11:17:47.355Z,12.07
2019-04-01T11:20:18.682Z,12.14
2019-04-01T11:22:49.952Z,12.18
2019-04-01T11:25:21.750Z,12.21
2019-04-01T11:27:52.975Z,12.24
2019-04-01T11:30:24.253Z,12.27
2019-04-01T11:32:55.556Z,12.32
2019-04-01T11:35:26.800Z,12.36
2019-04-01T11:37:58.189Z,12.40
2019-04-01T11:40:29.397Z,12.44
2019-04-01T11:43:04.685Z,12.48
2019-04-01T11:45:33.790Z,12.53
2019-04-01T11:48:06.235Z,12.59
2019-04-01T11:50:37.580Z,12.64
2019-04-01T11:53:08.836Z,12.68
2019-04-01T11:55:41.356Z,12.74
2019-04-01T11:58:12.695Z,12.79
2019-04-01T12:00:44.025Z,12.84
2019-04-01T12:03:15.185Z,12.94
2019-04-01T12:05:46.437Z,13.03
2019-04-01T12:08:17.886Z,13.10
2019-04-01T12:10:49.139Z,13.18
2019-04-01T12:13:20.600Z,13.23
2019-04-01T12:15:51.839Z,13.28
2019-04-01T12:18:23.113Z,13.32
2019-04-01T12:20:55.434Z,13.36
2019-04-01T12:23:26.715Z,13.43
2019-04-01T12:26:13.903Z,13.54
2019-04-01T12:28:32.015Z,13.65
2019-04-01T12:31:04.460Z,13.77
2019-04-01T12:33:36.752Z,13.87
2019-04-01T12:36:11.429Z,14.00
2019-04-01T12:38:42.246Z,14.15
2019-04-01T12:41:13.504Z,14.31
2019-04-01T12:43:44.845Z,14.44
2019-04-01T12:46:16.232Z,14.59
2019-04-01T12:48:47.361Z,14.77
2019-04-01T12:51:18.541Z,15.00
2019-04-01T12:53:49.746Z,15.24
2019-04-01T12:56:20.920Z,15.53
2019-04-01T12:58:52.151Z,16.23
2019-04-01T13:01:24.498Z,17.49
2019-04-01T13:03:56.824Z,18.61
2019-04-01T13:06:27.989Z,19.42
2019-04-01T13:08:59.227Z,20.09
2019-04-01T13:11:30.377Z,20.69
2019-04-01T13:14:01.583Z,21.29
2019-04-01T13:16:32.738Z,21.79
2019-04-01T13:19:03.937Z,22.15
2019-04-01T13:21:35.134Z,22.38
2019-04-01T13:24:06.229Z,22.55
2019-04-01T13:26:38.545Z,22.61
2019-04-01T13:29:09.750Z,22.64
2019-04-01T13:31:40.957Z,22.66
2019-04-01T13:34:12.121Z,22.72
2019-04-01T13:36:43.278Z,22.71
2019-04-01T13:39:14.498Z,22.70
2019-04-01T13:41:45.925Z,22.76
2019-04-01T13:44:18.093Z,22.91
2019-04-01T13:46:50.656Z,22.97
2019-04-01T13:49:21.927Z,23.04
2019-04-01T13:51:54.192Z,23.11
2019-04-01T13:54:25.390Z,23.20
2019-04-01T13:56:56.503Z,23.34
2019-04-01T13:59:27.645Z,23.47
2019-04-01T14:01:59.036Z,23.63
2019-04-01T14:04:33.429Z,23.74
2019-04-01T14:07:04.597Z,23.79
2019-04-01T14:09:35.879Z,23.91
2019-04-01T14:12:07.037Z,24.04
2019-04-01T14:14:38.242Z,24.14
2019-04-01T14:17:09.624Z,24.25
2019-04-01T14:19:41.920Z,24.37
2019-04-01T14:22:13.098Z,24.44
2019-04-01T14:24:45.260Z,24.49
2019-04-01T14:27:16.823Z,24.48
2019-04-01T14:29:48.091Z,24.57
2019-04-01T14:32:19.394Z,24.70
2019-04-01T14:34:50.763Z,24.86
2019-04-01T14:37:25.599Z,25.01
2019-04-01T14:39:54.933Z,25.06
2019-04-01T14:42:26.121Z,25.16
2019-04-01T14:45:00.214Z,25.22
2019-04-01T14:47:32.507Z,25.26
2019-04-01T14:50:07.479Z,25.27
2019-04-01T14:52:37.053Z,25.29
2019-04-01T14:55:08.265Z,25.19
2019-04-01T14:57:39.455Z,25.09
2019-04-01T15:00:14.712Z,25.12
2019-04-01T15:02:45.864Z,25.16
2019-04-01T15:05:17.099Z,25.17
2019-04-01T15:07:48.284Z,25.25
2019-04-01T15:10:19.749Z,25.29
2019-04-01T15:13:04.496Z,25.38
2019-04-01T15:15:23.872Z,25.45
2019-04-01T15:17:55.140Z,25.49
2019-04-01T15:20:26.495Z,25.47
2019-04-01T15:22:57.841Z,25.52
2019-04-01T15:25:29.003Z,25.56
2019-04-01T15:28:00.175Z,25.57
2019-04-01T15:30:32.083Z,25.56
2019-04-01T15:33:03.445Z,25.55
2019-04-01T15:35:34.580Z,25.53
2019-04-01T15:38:05.809Z,25.48
2019-04-01T15:40:37.121Z,25.54
2019-04-01T15:43:08.361Z,25.56
2019-04-01T15:45:39.598Z,25.54
2019-04-01T15:48:10.750Z,25.39
2019-04-01T15:50:41.970Z,25.35
2019-04-01T15:53:13.101Z,25.31
2019-04-01T15:55:44.363Z,25.26
2019-04-01T15:58:15.557Z,25.21
2019-04-01T16:00:46.697Z,25.06
2019-04-01T16:03:18.003Z,24.98
2019-04-01T16:05:49.216Z,24.96
2019-04-01T16:08:20.398Z,24.95
2019-04-01T16:10:51.545Z,24.93
2019-04-01T16:13:22.796Z,24.92
2019-04-01T16:15:54.031Z,24.88
2019-04-01T16:18:26.391Z,24.70
2019-04-01T16:20:59.394Z,24.46
2019-04-01T16:23:30.387Z,24.31
2019-04-01T16:26:01.670Z,24.22
2019-04-01T16:28:32.804Z,24.09
2019-04-01T16:31:04.306Z,23.92
2019-04-01T16:33:35.510Z,23.73
2019-04-01T16:36:07.636Z,23.60
2019-04-01T16:38:38.965Z,23.42
2019-04-01T16:41:10.143Z,23.27
2019-04-01T16:43:41.361Z,23.10
2019-04-01T16:46:12.663Z,22.91
2019-04-01T16:48:46.376Z,22.80
2019-04-01T16:51:16.830Z,22.71
2019-04-01T16:53:48.077Z,22.61
2019-04-01T16:56:19.208Z,22.54
2019-04-01T16:58:50.371Z,22.40
2019-04-01T17:01:23.166Z,21.98
2019-04-01T17:03:54.455Z,21.51
2019-04-01T17:06:26.755Z,21.06
2019-04-01T17:08:57.952Z,20.61
2019-04-01T17:11:30.128Z,20.18
2019-04-01T17:14:02.152Z,19.72
2019-04-01T17:16:34.409Z,19.26
2019-04-01T17:19:05.732Z,18.80
2019-04-01T17:21:36.882Z,18.43
2019-04-01T17:24:08.040Z,18.07
2019-04-01T17:27:09.810Z,17.74
2019-04-01T17:29:42.112Z,17.44
2019-04-01T17:32:13.286Z,17.09
2019-04-01T17:34:44.975Z,16.80
2019-04-01T17:37:16.342Z,16.56
2019-04-01T17:39:47.530Z,16.34
2019-04-01T17:42:18.796Z,16.10
2019-04-01T17:44:55.408Z,15.91
2019-04-01T17:47:27.440Z,15.69
2019-04-01T17:49:59.379Z,15.45
2019-04-01T17:52:31.483Z,15.25
2019-04-01T17:55:02.659Z,15.04
2019-04-01T17:57:34.383Z,14.87
2019-04-01T18:00:09.342Z,14.75
2019-04-01T18:02:40.703Z,14.61
2019-04-01T18:05:15.260Z,14.47
2019-04-01T18:07:46.650Z,14.35
2019-04-01T18:10:18.241Z,14.19
2019-04-01T18:12:50.072Z,14.03
2019-04-01T18:15:25.290Z,13.90
2019-04-01T18:17:57.241Z,13.77
2019-04-01T18:20:28.651Z,13.66
2019-04-01T18:23:00.138Z,13.58
2019-04-01T18:25:31.785Z,13.49
2019-04-01T18:28:03.075Z,13.42
2019-04-01T18:30:35.241Z,13.34
2019-04-01T18:33:07.035Z,13.26
2019-04-01T18:35:38.600Z,13.15
2019-04-01T18:38:10.116Z,13.08
2019-04-01T18:40:41.557Z,13.02
2019-04-01T18:43:12.967Z,12.95
2019-04-01T18:45:45.718Z,12.86
2019-04-01T18:48:17.133Z,12.80
2019-04-01T18:50:48.339Z,12.73
2019-04-01T18:53:19.621Z,12.65
2019-04-01T18:55:52.835Z,12.61
2019-04-01T18:58:24.294Z,12.55
2019-04-01T19:00:56.459Z,12.48
2019-04-01T19:03:27.615Z,12.42
2019-04-01T19:05:59.935Z,12.37
2019-04-01T19:08:31.059Z,12.31
2019-04-01T19:11:02.797Z,12.25
2019-04-01T19:13:34.276Z,12.18
2019-04-01T19:16:06.914Z,12.12
2019-04-01T19:18:39.745Z,12.08
2019-04-01T19:21:11.147Z,12.03
2019-04-01T19:23:42.463Z,11.99
2019-04-01T19:26:13.636Z,11.94
2019-04-01T19:28:47.072Z,11.89
2019-04-01T19:31:18.649Z,11.83
2019-04-01T19:33:49.847Z,11.79
2019-04-01T19:36:21.124Z,11.74
2019-04-01T19:38:54.306Z,11.69
2019-04-01T19:41:25.661Z,11.64
2019-04-01T19:43:57.208Z,11.59
2019-04-01T19:46:28.695Z,11.56
2019-04-01T19:49:00.195Z,11.49
2019-04-01T19:51:35.852Z,11.44
2019-04-01T19:54:06.307Z,11.38
2019-04-01T19:56:37.810Z,11.34
2019-04-01T19:59:09.037Z,11.28
2019-04-01T20:01:40.305Z,11.23
2019-04-01T20:04:11.820Z,11.18
2019-04-01T20:06:43.358Z,11.14
2019-04-01T20:09:14.961Z,11.09
2019-04-01T20:11:46.221Z,11.04
2019-04-01T20:14:17.661Z,11.01
2019-04-01T20:16:49.845Z,10.97
2019-04-01T20:19:21.057Z,10.91
2019-04-01T20:21:52.276Z,10.87
2019-04-01T20:24:24.040Z,10.83
2019-04-01T20:26:55.485Z,10.79
2019-04-01T20:29:29.994Z,10.76
2019-04-01T20:31:59.827Z,10.72
2019-04-01T20:34:32.272Z,10.67
2019-04-01T20:37:03.766Z,10.65
2019-04-01T20:39:35.659Z,10.59
2019-04-01T20:42:07.379Z,10.55
2019-04-01T20:44:39.062Z,10.52
2019-04-01T20:47:10.613Z,10.49
2019-04-01T20:49:42.268Z,10.45
2019-04-01T20:52:13.919Z,10.42
2019-04-01T20:54:45.797Z,10.39
2019-04-01T20:57:17.710Z,10.35
2019-04-01T20:59:49.057Z,10.29
2019-04-01T21:02:20.543Z,10.26
2019-04-01T21:04:52.720Z,10.20
2019-04-01T21:07:25.423Z,10.17
2019-04-01T21:09:57.162Z,10.14
2019-04-01T21:12:28.586Z,10.11
2019-04-01T21:15:01.292Z,10.06
2019-04-01T21:17:32.791Z,10.02
2019-04-01T21:20:04.962Z,10.00
2019-04-01T21:22:37.286Z,9.96
2019-04-01T21:25:10.711Z,9.92
2019-04-01T21:27:41.996Z,9.89
2019-04-01T21:30:13.976Z,9.85
2019-04-01T21:32:45.314Z,9.82
2019-04-01T21:35:16.836Z,9.79
2019-04-01T21:37:48.046Z,9.76
2019-04-01T21:40:19.383Z,9.74
2019-04-01T21:42:51.564Z,9.71
2019-04-01T21:45:23.127Z,9.68
2019-04-01T21:47:54.283Z,9.65
2019-04-01T21:50:25.498Z,9.62
2019-04-01T21:52:56.699Z,9.59
2019-04-01T21:55:27.838Z,9.56
2019-04-01T21:57:59.074Z,9.53
2019-04-01T22:00:48.248Z,9.51
2019-04-01T22:03:19.583Z,9.48
2019-04-01T22:05:50.751Z,9.46
2019-04-01T22:08:21.910Z,9.44
2019-04-01T22:10:53.111Z,9.41
2019-04-01T22:13:24.300Z,9.38
2019-04-01T22:15:55.420Z,9.35
2019-04-01T22:18:26.619Z,9.32
2019-04-01T22:20:57.936Z,9.32
2019-04-01T22:23:29.100Z,9.29
2019-04-01T22:26:00.309Z,9.27
2019-04-01T22:28:31.419Z,9.26
2019-04-01T22:31:02.718Z,9.23
2019-04-01T22:33:33.843Z,9.20
2019-04-01T22:36:05.049Z,9.19
2019-04-01T22:38:36.219Z,9.16
2019-04-01T22:41:07.428Z,9.13
2019-04-01T22:43:38.565Z,9.11
2019-04-01T22:46:09.708Z,9.08
2019-04-01T22:48:40.864Z,9.05
2019-04-01T22:51:12.002Z,9.02
2019-04-01T22:53:43.175Z,9.00
2019-04-01T22:56:14.354Z,8.98
2019-04-01T22:58:45.653Z,8.95
2019-04-01T23:01:16.829Z,8.93
2019-04-01T23:03:48.050Z,8.90
2019-04-01T23:06:19.246Z,8.87
2019-04-01T23:08:50.383Z,8.84
2019-04-01T23:11:21.536Z,8.82
2019-04-01T23:13:52.686Z,8.80
2019-04-01T23:16:23.836Z,8.77
2019-04-01T23:18:55.119Z,8.75
2019-04-01T23:21:26.259Z,8.73
2019-04-01T23:23:59.111Z,8.72
2019-04-01T23:26:30.342Z,8.71
2019-04-01T23:29:02.593Z,8.70
2019-04-01T23:31:33.729Z,8.68
2019-04-01T23:34:04.894Z,8.67
2019-04-01T23:36:36.065Z,8.65
2019-04-01T23:39:07.944Z,8.65
2019-04-01T23:41:39.115Z,8.64
2019-04-01T23:44:10.267Z,8.61
2019-04-01T23:46:42.493Z,8.59
2019-04-01T23:49:13.652Z,8.59
2019-04-01T23:51:44.851Z,8.58
2019-04-01T23:54:16.008Z,8.59
2019-04-01T23:56:47.228Z,8.59
2019-04-01T23:59:19.188Z,8.59
